createdAt,value
2019-05-19T00:01:57.891Z,4.40
2019-05-19T00:04:24.696Z,4.33
2019-05-19T00:06:51.540Z,3.93
2019-05-19T00:09:18.699Z,4.60
2019-05-19T00:11:45.709Z,4.87
2019-05-19T00:14:13.914Z,4.57
2019-05-19T00:16:40.895Z,3.90
2019-05-19T00:19:08.632Z,4.30
2019-05-19T00:21:35.518Z,4.53
2019-05-19T00:24:02.840Z,4.43
2019-05-19T00:26:30.103Z,5.17
2019-05-19T00:28:56.880Z,4.70
2019-05-19T00:31:23.525Z,5.57
2019-05-19T00:33:50.566Z,4.93
2019-05-19T00:36:19.608Z,4.60
2019-05-19T00:38:45.943Z,4.53
2019-05-19T00:41:12.567Z,4.30
2019-05-19T00:43:39.218Z,4.47
2019-05-19T00:46:06.216Z,5.00
2019-05-19T00:48:33.061Z,4.97
2019-05-19T00:50:59.873Z,5.17
2019-05-19T00:53:27.025Z,4.57
2019-05-19T00:55:57.188Z,5.07
2019-05-19T00:58:25.802Z,5.10
2019-05-19T01:00:53.886Z,5.37
2019-05-19T01:03:20.482Z,4.73
2019-05-19T01:05:47.548Z,4.90
2019-05-19T01:08:14.600Z,4.87
2019-05-19T01:10:41.388Z,4.80
2019-05-19T01:13:09.290Z,5.40
2019-05-19T01:15:37.405Z,6.07
2019-05-19T01:18:04.362Z,4.17
2019-05-19T01:20:32.638Z,4.70
2019-05-19T01:22:59.386Z,5.10
2019-05-19T01:25:26.113Z,4.60
2019-05-19T01:27:52.772Z,4.83
2019-05-19T01:30:20.697Z,5.07
2019-05-19T01:32:47.330Z,5.07
2019-05-19T01:35:14.382Z,4.83
2019-05-19T01:37:41.060Z,5.23
2019-05-19T01:40:09.507Z,5.13
2019-05-19T01:42:36.422Z,5.43
2019-05-19T01:45:07.169Z,5.07
2019-05-19T01:47:35.233Z,5.10
2019-05-19T01:50:17.477Z,5.13
2019-05-19T01:52:36.305Z,5.20
2019-05-19T01:55:05.891Z,5.20
2019-05-19T01:57:35.613Z,5.83
2019-05-19T02:00:07.334Z,5.53
2019-05-19T02:02:35.115Z,5.10
2019-05-19T02:05:05.388Z,5.30
2019-05-19T02:07:32.105Z,6.10
2019-05-19T02:09:58.793Z,5.37
2019-05-19T02:12:27.815Z,5.43
2019-05-19T02:14:55.785Z,4.93
2019-05-19T02:17:22.355Z,5.90
2019-05-19T02:19:50.349Z,5.03
2019-05-19T02:22:17.234Z,5.63
2019-05-19T02:24:44.098Z,5.13
2019-05-19T02:27:12.049Z,5.67
2019-05-19T02:29:38.833Z,5.20
2019-05-19T02:32:07.342Z,5.53
2019-05-19T02:34:33.956Z,5.47
2019-05-19T02:37:01.859Z,5.90
2019-05-19T02:39:29.739Z,5.33
2019-05-19T02:42:01.174Z,5.63
2019-05-19T02:44:29.624Z,5.30
2019-05-19T02:47:00.512Z,6.00
2019-05-19T02:49:30.818Z,4.97
2019-05-19T02:51:58.876Z,6.00
2019-05-19T02:54:28.855Z,5.23
2019-05-19T02:56:56.307Z,5.70
2019-05-19T02:59:24.423Z,5.63
2019-05-19T03:01:54.479Z,5.83
2019-05-19T03:04:21.105Z,5.47
2019-05-19T03:06:47.940Z,5.40
2019-05-19T03:09:14.577Z,5.20
2019-05-19T03:11:41.448Z,5.57
2019-05-19T03:14:08.031Z,5.37
2019-05-19T03:16:34.593Z,6.30
2019-05-19T03:19:01.189Z,5.43
2019-05-19T03:21:27.792Z,6.70
2019-05-19T03:23:54.814Z,5.50
2019-05-19T03:26:21.467Z,5.23
2019-05-19T03:28:50.651Z,5.93
2019-05-19T03:31:19.278Z,5.73
2019-05-19T03:33:47.878Z,5.40
2019-05-19T03:36:14.464Z,5.73
2019-05-19T03:38:41.637Z,5.47
2019-05-19T03:41:08.348Z,5.80
2019-05-19T03:43:36.483Z,5.73
2019-05-19T03:46:03.327Z,5.50
2019-05-19T03:48:31.178Z,5.70
2019-05-19T03:50:57.816Z,5.47
2019-05-19T03:53:24.645Z,6.50
2019-05-19T03:55:52.583Z,5.77
2019-05-19T03:58:20.639Z,6.57
2019-05-19T04:00:48.709Z,6.93
2019-05-19T04:03:15.319Z,6.40
2019-05-19T04:05:41.980Z,6.70
2019-05-19T04:08:08.781Z,6.17
2019-05-19T04:10:35.613Z,7.00
2019-05-19T04:13:03.314Z,6.87
2019-05-19T04:15:30.396Z,6.90
2019-05-19T04:17:58.168Z,7.20
2019-05-19T04:20:25.504Z,6.80
2019-05-19T04:22:52.536Z,7.67
2019-05-19T04:25:20.794Z,7.63
2019-05-19T04:27:48.678Z,7.53
2019-05-19T04:30:17.406Z,6.70
2019-05-19T04:32:44.250Z,7.33
2019-05-19T04:35:11.517Z,6.93
2019-05-19T04:37:38.345Z,6.63
2019-05-19T04:40:06.299Z,6.77
2019-05-19T04:42:34.436Z,7.10
2019-05-19T04:45:01.628Z,7.07
2019-05-19T04:47:28.423Z,6.67
2019-05-19T04:49:55.096Z,6.50
2019-05-19T04:52:21.733Z,6.63
2019-05-19T04:54:49.042Z,6.67
2019-05-19T04:57:15.920Z,6.03
2019-05-19T04:59:43.851Z,6.10
2019-05-19T05:02:12.913Z,6.37
2019-05-19T05:04:40.816Z,6.43
2019-05-19T05:07:07.700Z,5.83
2019-05-19T05:09:35.982Z,6.03
2019-05-19T05:12:04.242Z,6.07
2019-05-19T05:14:35.032Z,5.90
2019-05-19T05:17:01.882Z,6.10
2019-05-19T05:19:28.666Z,5.73
2019-05-19T05:21:56.737Z,6.07
2019-05-19T05:24:24.430Z,5.90
2019-05-19T05:26:52.227Z,5.20
2019-05-19T05:29:18.952Z,5.97
2019-05-19T05:31:45.744Z,5.40
2019-05-19T05:34:13.598Z,5.30
2019-05-19T05:36:40.676Z,4.87
2019-05-19T05:39:07.430Z,5.00
2019-05-19T05:41:38.316Z,5.50
2019-05-19T05:44:05.111Z,5.53
2019-05-19T05:46:31.937Z,6.67
2019-05-19T05:48:58.622Z,5.67
2019-05-19T05:51:25.479Z,5.50
2019-05-19T05:53:52.225Z,4.90
2019-05-19T05:56:19.206Z,5.10
2019-05-19T05:58:47.018Z,4.70
2019-05-19T06:01:14.131Z,4.80
2019-05-19T06:03:41.929Z,5.10
2019-05-19T06:06:08.751Z,4.60
2019-05-19T06:08:35.889Z,4.73
2019-05-19T06:11:02.840Z,4.47
2019-05-19T06:13:29.590Z,4.67
2019-05-19T06:15:58.319Z,5.10
2019-05-19T06:18:24.943Z,4.83
2019-05-19T06:20:52.284Z,3.83
2019-05-19T06:23:22.199Z,4.70
2019-05-19T06:25:49.140Z,4.03
2019-05-19T06:28:16.038Z,4.17
2019-05-19T06:30:43.350Z,4.23
2019-05-19T06:33:09.993Z,4.07
2019-05-19T06:35:37.859Z,4.63
2019-05-19T06:38:04.514Z,4.20
2019-05-19T06:40:31.329Z,4.43
2019-05-19T06:42:58.001Z,4.00
2019-05-19T06:45:26.081Z,4.47
2019-05-19T06:47:52.948Z,4.83
2019-05-19T06:50:21.670Z,4.37
2019-05-19T06:52:48.516Z,3.70
2019-05-19T06:55:15.826Z,4.13
2019-05-19T06:57:43.505Z,3.90
2019-05-19T07:00:12.817Z,4.33
2019-05-19T07:02:41.057Z,4.00
2019-05-19T07:05:09.213Z,3.80
2019-05-19T07:07:41.645Z,3.63
2019-05-19T07:10:10.746Z,4.23
2019-05-19T07:12:38.620Z,3.77
2019-05-19T07:15:07.673Z,3.93
2019-05-19T07:17:36.937Z,4.30
2019-05-19T07:20:06.158Z,4.20
2019-05-19T07:22:37.470Z,4.07
2019-05-19T07:25:05.271Z,3.70
2019-05-19T07:27:31.887Z,4.03
2019-05-19T07:29:58.739Z,4.03
2019-05-19T07:32:26.705Z,4.50
2019-05-19T07:34:53.491Z,3.63
2019-05-19T07:37:21.461Z,3.87
2019-05-19T07:39:48.136Z,3.80
2019-05-19T07:42:15.322Z,4.83
2019-05-19T07:44:45.195Z,3.90
2019-05-19T07:47:10.915Z,4.00
2019-05-19T07:49:39.024Z,3.80
2019-05-19T07:52:06.488Z,4.03
2019-05-19T07:54:33.433Z,3.90
2019-05-19T07:57:00.260Z,3.67
2019-05-19T07:59:26.876Z,3.97
2019-05-19T08:01:54.480Z,3.63
2019-05-19T08:04:22.509Z,3.67
2019-05-19T08:06:49.170Z,3.70
2019-05-19T08:09:16.329Z,3.77
2019-05-19T08:11:43.424Z,4.10
2019-05-19T08:14:11.520Z,4.03
2019-05-19T08:16:38.309Z,4.13
2019-05-19T08:19:07.501Z,3.80
2019-05-19T08:21:36.701Z,4.03
2019-05-19T08:24:03.850Z,4.27
2019-05-19T08:26:30.901Z,3.60
2019-05-19T08:28:57.564Z,3.83
2019-05-19T08:31:26.074Z,3.37
2019-05-19T08:33:52.870Z,4.30
2019-05-19T08:36:21.363Z,4.07
2019-05-19T08:38:51.015Z,3.70
2019-05-19T08:41:18.057Z,3.83
2019-05-19T08:43:46.152Z,4.57
2019-05-19T08:46:12.722Z,3.60
2019-05-19T08:48:39.751Z,4.13
2019-05-19T08:51:08.035Z,3.60
2019-05-19T08:53:34.935Z,3.77
2019-05-19T08:56:02.995Z,3.80
2019-05-19T08:58:29.759Z,4.00
2019-05-19T09:00:56.356Z,5.00
2019-05-19T09:03:24.189Z,3.70
2019-05-19T09:05:51.469Z,2.70
2019-05-19T09:08:19.020Z,3.50
2019-05-19T09:10:46.407Z,5.43
2019-05-19T09:13:14.406Z,3.77
2019-05-19T09:15:42.193Z,3.20
2019-05-19T09:18:09.695Z,3.17
2019-05-19T09:20:36.473Z,3.13
2019-05-19T09:23:03.707Z,4.20
2019-05-19T09:25:31.793Z,5.00
2019-05-19T09:27:59.583Z,3.60
2019-05-19T09:30:26.387Z,3.23
2019-05-19T09:32:53.827Z,3.50
2019-05-19T09:35:20.481Z,3.87
2019-05-19T09:37:47.281Z,3.60
2019-05-19T09:40:15.448Z,3.67
2019-05-19T09:42:42.693Z,3.50
2019-05-19T09:45:11.051Z,3.47
2019-05-19T09:47:37.991Z,3.47
2019-05-19T09:50:06.152Z,4.53
2019-05-19T09:52:33.597Z,3.47
2019-05-19T09:55:00.393Z,3.37
2019-05-19T09:57:27.494Z,3.27
2019-05-19T09:59:54.318Z,3.07
2019-05-19T10:02:21.344Z,3.40
2019-05-19T10:04:48.040Z,3.27
2019-05-19T10:07:16.062Z,2.60
2019-05-19T10:09:49.797Z,3.50
2019-05-19T10:12:20.227Z,3.20
2019-05-19T10:14:49.698Z,3.27
2019-05-19T10:17:17.602Z,3.23
2019-05-19T10:19:44.920Z,2.83
2019-05-19T10:22:13.019Z,2.83
2019-05-19T10:24:40.882Z,3.47
2019-05-19T10:27:08.334Z,3.00
2019-05-19T10:29:35.408Z,3.03
2019-05-19T10:32:02.446Z,2.77
2019-05-19T10:34:29.612Z,3.53
2019-05-19T10:36:57.418Z,3.47
2019-05-19T10:39:25.267Z,3.17
2019-05-19T10:41:52.317Z,2.70
2019-05-19T10:44:18.980Z,3.10
2019-05-19T10:46:47.216Z,2.53
2019-05-19T10:50:12.370Z,3.03
2019-05-19T10:52:39.161Z,3.20
2019-05-19T10:55:07.629Z,2.83
2019-05-19T10:57:35.530Z,2.93
2019-05-19T11:00:08.402Z,3.20
2019-05-19T11:02:35.665Z,3.20
2019-05-19T11:05:07.106Z,2.70
2019-05-19T11:07:35.289Z,3.70
2019-05-19T11:10:06.248Z,3.13
2019-05-19T11:12:33.788Z,3.30
2019-05-19T11:15:00.611Z,2.97
2019-05-19T11:17:27.410Z,3.17
2019-05-19T11:19:54.213Z,3.07
2019-05-19T11:22:21.496Z,3.20
2019-05-19T11:24:48.256Z,3.43
2019-05-19T11:27:14.984Z,3.30
2019-05-19T11:29:42.128Z,3.17
2019-05-19T11:32:08.788Z,3.40
2019-05-19T11:34:36.899Z,3.30
2019-05-19T11:37:07.075Z,4.60
2019-05-19T11:39:32.952Z,3.30
2019-05-19T11:41:59.520Z,3.00
2019-05-19T11:44:26.573Z,3.40
2019-05-19T11:46:54.503Z,3.20
2019-05-19T11:49:21.101Z,4.17
2019-05-19T11:51:48.218Z,3.20
2019-05-19T11:54:16.402Z,3.30
2019-05-19T11:56:45.754Z,3.33
2019-05-19T11:59:12.538Z,3.17
2019-05-19T12:01:40.249Z,3.20
2019-05-19T12:04:07.018Z,3.50
2019-05-19T12:06:39.267Z,4.00
2019-05-19T12:09:06.905Z,3.37
2019-05-19T12:11:33.960Z,3.60
2019-05-19T12:14:03.867Z,3.60
2019-05-19T12:16:30.660Z,3.47
2019-05-19T12:18:58.296Z,3.50
2019-05-19T12:21:24.880Z,3.53
2019-05-19T12:23:55.556Z,3.53
2019-05-19T12:26:25.953Z,3.23
2019-05-19T12:28:53.870Z,3.40
2019-05-19T12:31:20.592Z,3.47
2019-05-19T12:33:51.940Z,3.53
2019-05-19T12:36:15.725Z,4.43
2019-05-19T12:38:43.684Z,3.60
2019-05-19T12:41:10.404Z,3.77
2019-05-19T12:43:37.303Z,3.37
2019-05-19T12:46:14.918Z,3.80
2019-05-19T12:48:35.018Z,4.03
2019-05-19T12:51:01.944Z,3.73
2019-05-19T12:53:30.182Z,2.87
2019-05-19T12:55:57.228Z,3.70
2019-05-19T12:58:25.030Z,2.97
2019-05-19T13:00:51.882Z,3.00
2019-05-19T13:04:15.081Z,2.93
2019-05-19T13:06:45.383Z,2.87
2019-05-19T13:09:12.762Z,3.30
2019-05-19T13:11:39.611Z,3.10
2019-05-19T13:14:07.459Z,3.30
2019-05-19T13:16:34.595Z,2.80
2019-05-19T13:19:58.063Z,2.93
2019-05-19T13:22:24.721Z,2.90
2019-05-19T13:24:51.549Z,3.00
2019-05-19T13:27:18.433Z,3.00
2019-05-19T13:29:46.255Z,3.27
2019-05-19T13:32:13.896Z,3.50
2019-05-19T13:34:41.382Z,3.00
2019-05-19T13:37:09.503Z,3.10
2019-05-19T13:39:37.393Z,2.80
2019-05-19T13:42:04.519Z,3.37
2019-05-19T13:44:35.554Z,3.13
2019-05-19T13:47:02.564Z,3.17
2019-05-19T13:49:29.328Z,3.00
2019-05-19T13:51:55.970Z,2.73
2019-05-19T13:54:26.286Z,3.50
2019-05-19T13:56:54.230Z,3.33
2019-05-19T13:59:20.829Z,2.90
2019-05-19T14:01:48.841Z,3.30
2019-05-19T14:04:15.702Z,3.63
2019-05-19T14:06:43.822Z,3.53
2019-05-19T14:09:15.132Z,4.13
2019-05-19T14:11:40.498Z,3.80
2019-05-19T14:14:07.422Z,3.63
2019-05-19T14:16:33.999Z,3.40
2019-05-19T14:19:01.017Z,3.43
2019-05-19T14:21:27.792Z,3.37
2019-05-19T14:23:54.679Z,3.87
2019-05-19T14:26:21.381Z,3.53
2019-05-19T14:28:49.442Z,3.13
2019-05-19T14:31:17.186Z,3.20
2019-05-19T14:33:44.004Z,2.87
2019-05-19T14:36:10.706Z,3.23
2019-05-19T14:38:39.499Z,3.33
2019-05-19T14:41:06.348Z,4.10
2019-05-19T14:43:33.412Z,3.47
2019-05-19T14:46:57.684Z,3.10
2019-05-19T14:49:25.580Z,3.40
2019-05-19T14:51:52.322Z,3.40
2019-05-19T14:54:22.155Z,3.10
2019-05-19T14:56:48.723Z,3.20
2019-05-19T14:59:16.514Z,2.77
2019-05-19T15:01:43.110Z,2.80
2019-05-19T15:04:12.729Z,2.97
2019-05-19T15:06:39.405Z,3.00
2019-05-19T15:09:10.468Z,2.50
2019-05-19T15:11:40.181Z,2.47
2019-05-19T15:14:07.718Z,2.57
2019-05-19T15:16:34.507Z,2.50
2019-05-19T15:19:01.636Z,2.43
2019-05-19T15:21:31.663Z,2.57
2019-05-19T15:23:57.367Z,2.30
2019-05-19T15:26:24.121Z,2.50
2019-05-19T15:29:47.126Z,2.17
2019-05-19T15:32:13.974Z,2.40
2019-05-19T15:34:41.608Z,2.63
2019-05-19T15:37:08.633Z,2.60
2019-05-19T15:39:35.702Z,2.80
2019-05-19T15:42:02.984Z,2.57
2019-05-19T15:44:31.103Z,2.30
2019-05-19T15:46:58.327Z,2.27
2019-05-19T15:49:26.169Z,2.10
2019-05-19T15:52:01.448Z,2.40
2019-05-19T15:54:23.112Z,2.63
2019-05-19T15:56:50.239Z,2.60
2019-05-19T15:59:17.920Z,2.40
2019-05-19T16:01:45.780Z,2.50
2019-05-19T16:04:12.574Z,2.40
2019-05-19T16:06:39.313Z,2.17
2019-05-19T16:09:08.184Z,2.50
2019-05-19T16:11:36.170Z,3.10
2019-05-19T16:14:03.849Z,2.50
2019-05-19T16:16:30.722Z,2.67
2019-05-19T16:18:57.378Z,2.70
2019-05-19T16:21:27.692Z,3.07
2019-05-19T16:25:10.009Z,2.80
2019-05-19T16:27:36.749Z,2.70
2019-05-19T16:30:09.148Z,2.50
2019-05-19T16:32:35.942Z,2.37
2019-05-19T16:35:05.953Z,2.53
2019-05-19T16:37:33.905Z,2.70
2019-05-19T16:40:01.072Z,3.10
2019-05-19T16:42:30.239Z,2.43
2019-05-19T16:44:58.071Z,2.70
2019-05-19T16:47:27.058Z,3.30
2019-05-19T16:49:55.042Z,2.97
2019-05-19T16:52:22.460Z,3.00
2019-05-19T16:54:53.944Z,2.80
2019-05-19T16:57:22.010Z,2.83
2019-05-19T16:59:49.181Z,3.37
2019-05-19T17:02:15.838Z,3.10
2019-05-19T17:04:43.629Z,3.00
2019-05-19T17:07:10.233Z,3.60
2019-05-19T17:09:38.289Z,2.97
2019-05-19T17:12:06.946Z,3.43
2019-05-19T17:14:35.070Z,3.23
2019-05-19T17:17:02.311Z,3.13
2019-05-19T17:19:29.015Z,3.23
2019-05-19T17:21:55.772Z,3.17
2019-05-19T17:25:18.719Z,3.23
2019-05-19T17:27:45.930Z,2.90
2019-05-19T17:30:50.635Z,3.23
2019-05-19T17:33:17.439Z,2.83
2019-05-19T17:35:45.414Z,2.97
2019-05-19T17:38:13.366Z,3.70
2019-05-19T17:40:41.302Z,4.00
2019-05-19T17:43:08.368Z,3.50
2019-05-19T17:45:36.426Z,3.77
2019-05-19T17:48:10.122Z,3.73
2019-05-19T17:50:34.266Z,4.20
2019-05-19T17:53:02.794Z,4.67
2019-05-19T17:55:33.619Z,3.80
2019-05-19T17:58:03.071Z,3.60
2019-05-19T18:00:36.364Z,4.40
2019-05-19T18:03:05.330Z,4.03
2019-05-19T18:05:32.519Z,4.77
2019-05-19T18:07:59.439Z,5.17
2019-05-19T18:10:27.725Z,4.33
2019-05-19T18:12:54.617Z,3.80
2019-05-19T18:15:21.743Z,5.40
2019-05-19T18:17:51.501Z,4.27
2019-05-19T18:20:23.715Z,4.40
2019-05-19T18:22:47.390Z,5.80
2019-05-19T18:25:14.463Z,6.23
2019-05-19T18:27:41.174Z,6.60
2019-05-19T18:30:12.542Z,6.53
2019-05-19T18:32:41.389Z,6.17
2019-05-19T18:35:08.908Z,6.50
2019-05-19T18:37:45.133Z,6.17
2019-05-19T18:40:13.506Z,6.43
2019-05-19T18:42:40.347Z,7.13
2019-05-19T18:45:08.409Z,6.20
2019-05-19T18:47:36.437Z,6.73
2019-05-19T18:50:06.786Z,7.57
2019-05-19T18:52:34.791Z,7.23
2019-05-19T18:55:04.206Z,7.20
2019-05-19T18:57:32.199Z,7.30
2019-05-19T18:59:59.244Z,6.43
2019-05-19T19:02:26.625Z,6.13
2019-05-19T19:04:54.908Z,6.70
2019-05-19T19:07:24.715Z,5.80
2019-05-19T19:09:51.337Z,6.80
2019-05-19T19:12:20.538Z,7.67
2019-05-19T19:14:49.019Z,11.77
2019-05-19T19:17:16.101Z,8.97
2019-05-19T19:19:42.698Z,8.33
2019-05-19T19:22:09.356Z,7.37
2019-05-19T19:24:38.534Z,7.47
2019-05-19T19:27:04.659Z,7.93
2019-05-19T19:29:32.284Z,9.50
2019-05-19T19:32:00.367Z,9.03
2019-05-19T19:34:27.392Z,8.17
2019-05-19T19:36:54.135Z,8.57
2019-05-19T19:39:32.197Z,8.17
2019-05-19T19:42:13.268Z,7.77
2019-05-19T19:44:47.680Z,8.70
2019-05-19T19:47:16.805Z,7.90
2019-05-19T19:49:45.039Z,7.63
2019-05-19T19:52:12.715Z,7.63
2019-05-19T19:54:39.452Z,7.70
2019-05-19T19:57:08.630Z,6.70
2019-05-19T19:59:36.390Z,7.40
2019-05-19T20:02:03.692Z,6.03
2019-05-19T20:04:31.806Z,7.10
2019-05-19T20:06:58.612Z,6.97
2019-05-19T20:09:26.433Z,7.63
2019-05-19T20:11:53.279Z,6.87
2019-05-19T20:14:21.870Z,6.43
2019-05-19T20:16:49.709Z,6.73
2019-05-19T20:19:16.514Z,6.70
2019-05-19T20:21:43.336Z,6.77
2019-05-19T20:24:10.493Z,6.70
2019-05-19T20:26:38.210Z,7.10
2019-05-19T20:29:04.785Z,7.27
2019-05-19T20:31:31.639Z,6.73
2019-05-19T20:33:58.409Z,7.27
2019-05-19T20:36:25.229Z,6.73
2019-05-19T20:38:52.417Z,6.50
2019-05-19T20:41:20.314Z,6.03
2019-05-19T20:43:53.653Z,5.17
2019-05-19T20:46:27.498Z,5.63
2019-05-19T20:48:59.929Z,4.87
2019-05-19T20:51:34.040Z,4.97
2019-05-19T20:54:05.513Z,5.17
2019-05-19T20:56:38.975Z,4.77
2019-05-19T20:59:12.076Z,5.10
2019-05-19T21:01:45.091Z,4.53
2019-05-19T21:04:16.851Z,4.53
2019-05-19T21:06:54.563Z,5.20
2019-05-19T21:09:26.479Z,4.20
2019-05-19T21:11:59.146Z,4.30
2019-05-19T21:14:29.171Z,4.33
2019-05-19T21:17:00.171Z,4.67
2019-05-19T21:19:31.362Z,4.10
2019-05-19T21:22:03.812Z,3.83
2019-05-19T21:24:37.202Z,3.90
2019-05-19T21:27:11.858Z,3.93
2019-05-19T21:29:43.944Z,4.10
2019-05-19T21:32:15.617Z,4.00
2019-05-19T21:34:47.498Z,3.33
2019-05-19T21:37:22.282Z,3.90
2019-05-19T21:39:55.408Z,4.00
2019-05-19T21:42:28.408Z,4.10
2019-05-19T21:45:00.072Z,3.63
2019-05-19T21:47:28.112Z,3.50
2019-05-19T21:49:55.945Z,3.73
2019-05-19T21:52:22.986Z,3.70
2019-05-19T21:54:50.056Z,3.50
2019-05-19T21:57:16.936Z,3.67
2019-05-19T22:00:42.417Z,3.43
2019-05-19T22:03:09.079Z,3.23
2019-05-19T22:05:35.996Z,3.30
2019-05-19T22:08:04.911Z,2.80
2019-05-19T22:10:32.307Z,3.53
2019-05-19T22:12:59.148Z,3.20
2019-05-19T22:15:25.945Z,3.20
2019-05-19T22:17:52.512Z,3.30
2019-05-19T22:20:20.445Z,3.13
2019-05-19T22:22:47.191Z,3.40
2019-05-19T22:25:13.984Z,3.00
2019-05-19T22:27:41.687Z,3.27
2019-05-19T22:30:09.429Z,3.37
2019-05-19T22:32:36.244Z,3.13
2019-05-19T22:35:05.316Z,3.00
2019-05-19T22:37:32.125Z,3.17
2019-05-19T22:39:58.760Z,3.50
2019-05-19T22:42:27.124Z,3.30
2019-05-19T22:44:53.950Z,3.07
2019-05-19T22:47:23.109Z,3.67
2019-05-19T22:49:51.103Z,3.37
2019-05-19T22:52:18.130Z,3.60
2019-05-19T22:54:44.822Z,4.57
2019-05-19T22:57:11.719Z,3.67
2019-05-19T22:59:38.443Z,6.17
2019-05-19T23:02:05.476Z,3.80
2019-05-19T23:04:32.497Z,2.83
2019-05-19T23:06:59.415Z,3.60
2019-05-19T23:09:26.058Z,3.20
2019-05-19T23:11:53.884Z,3.50
2019-05-19T23:14:20.660Z,3.87
2019-05-19T23:16:47.524Z,3.40
2019-05-19T23:19:14.123Z,3.43
2019-05-19T23:21:41.211Z,3.40
2019-05-19T23:24:08.028Z,5.00
2019-05-19T23:26:34.645Z,5.07
2019-05-19T23:29:01.425Z,4.00
2019-05-19T23:31:27.986Z,3.87
2019-05-19T23:33:55.713Z,4.07
2019-05-19T23:36:22.713Z,3.60
2019-05-19T23:38:49.560Z,3.50
2019-05-19T23:41:16.290Z,3.80
2019-05-19T23:43:43.517Z,2.83
2019-05-19T23:46:10.360Z,3.67
2019-05-19T23:48:36.979Z,3.27
2019-05-19T23:51:05.063Z,3.20
2019-05-19T23:53:31.752Z,3.13
2019-05-19T23:55:58.326Z,3.90
2019-05-19T23:58:25.375Z,3.00
